Terminal Aerodrome Forecast
Issued by NWS Cleveland, OH

Home | Current Version | Previous Version | Graphics & Text | Print | Product List | Glossary On
Versions: 1 2 3 4 5 6 7 8 9 10 11 12 13 14 15 16 17 18
000
FTUS41 KCLE 241200 AAA
TAFCLE
TAF AMD
KCLE 241241Z 2413/2518 15008KT P6SM SCT008 OVC020
      TEMPO 2413/2415 BKN008 OVC020
     FM241800 17015G25KT P6SM OVC020
     FM242200 18020G35KT 4SM -SHRA OVC012
     FM250030 22025G45KT P6SM OVC020
     FM250900 24020G32KT 3SM -SHSN OVC018
     FM251200 24020G30KT P6SM OVC025=

USA.gov is the U.S. government's official web portal to all federal, state and local government web resources and services.